createdAt,value
2018-06-15T00:02:05.626Z,15.97
2018-06-15T00:04:33.281Z,15.17
2018-06-15T00:07:00.753Z,16.70
2018-06-15T00:09:28.299Z,16.10
2018-06-15T00:11:55.701Z,15.93
2018-06-15T00:14:23.171Z,15.90
2018-06-15T00:16:50.930Z,15.93
2018-06-15T00:19:18.399Z,16.03
2018-06-15T00:21:45.984Z,16.10
2018-06-15T00:24:13.651Z,16.17
2018-06-15T00:26:42.629Z,16.30
2018-06-15T00:29:10.066Z,16.43
2018-06-15T00:31:37.481Z,17.37
2018-06-15T00:34:05.022Z,17.93
2018-06-15T00:36:32.418Z,15.70
2018-06-15T00:38:59.943Z,16.00
2018-06-15T00:41:27.638Z,15.97
2018-06-15T00:43:54.994Z,16.50
2018-06-15T00:46:22.455Z,17.70
2018-06-15T00:48:49.884Z,17.13
2018-06-15T00:51:17.657Z,16.90
2018-06-15T00:53:45.210Z,17.67
2018-06-15T00:56:12.799Z,18.90
2018-06-15T00:58:40.226Z,18.00
2018-06-15T01:01:07.706Z,16.60
2018-06-15T01:03:35.147Z,17.77
2018-06-15T01:06:02.624Z,17.20
2018-06-15T01:08:30.114Z,16.80
2018-06-15T01:10:57.614Z,20.13
2018-06-15T01:13:25.023Z,18.90
2018-06-15T01:15:52.418Z,17.70
2018-06-15T01:18:19.860Z,18.27
2018-06-15T01:20:47.322Z,17.83
2018-06-15T01:23:14.771Z,20.33
2018-06-15T01:25:42.231Z,17.73
2018-06-15T01:28:09.715Z,18.33
2018-06-15T01:30:37.179Z,17.30
2018-06-15T01:33:04.624Z,17.80
2018-06-15T01:35:32.134Z,17.67
2018-06-15T01:37:59.644Z,18.90
2018-06-15T01:40:27.306Z,18.60
2018-06-15T01:42:54.840Z,17.97
2018-06-15T01:45:22.356Z,18.40
2018-06-15T01:47:49.838Z,19.10
2018-06-15T01:50:17.272Z,19.90
2018-06-15T01:52:44.715Z,19.70
2018-06-15T01:55:12.144Z,18.23
2018-06-15T01:57:39.542Z,19.87
2018-06-15T02:00:07.124Z,21.17
2018-06-15T02:02:34.590Z,22.00
2018-06-15T02:05:02.262Z,20.53
2018-06-15T02:07:29.815Z,20.47
2018-06-15T02:09:57.265Z,21.23
2018-06-15T02:12:25.072Z,21.33
2018-06-15T02:14:52.571Z,21.90
2018-06-15T02:17:20.227Z,24.43
2018-06-15T02:19:47.766Z,21.03
2018-06-15T02:22:15.333Z,22.23
2018-06-15T02:24:43.212Z,22.50
2018-06-15T02:27:10.762Z,24.70
2018-06-15T02:29:38.270Z,21.90
2018-06-15T02:32:05.836Z,22.77
2018-06-15T02:34:33.367Z,21.50
2018-06-15T02:37:00.911Z,22.00
2018-06-15T02:39:28.454Z,21.93
2018-06-15T02:41:55.991Z,22.40
2018-06-15T02:44:23.804Z,22.70
2018-06-15T02:46:51.382Z,23.00
2018-06-15T02:49:18.878Z,23.97
2018-06-15T02:51:46.393Z,23.27
2018-06-15T02:54:13.934Z,23.53
2018-06-15T02:56:41.618Z,24.07
2018-06-15T02:59:09.165Z,23.93
2018-06-15T03:01:36.686Z,24.17
2018-06-15T03:04:04.360Z,23.20
2018-06-15T03:06:31.939Z,21.83
2018-06-15T03:08:59.507Z,23.47
2018-06-15T03:11:27.144Z,23.10
2018-06-15T03:13:54.686Z,24.20
2018-06-15T03:16:22.287Z,21.87
2018-06-15T03:18:49.832Z,24.20
2018-06-15T03:21:17.418Z,22.00
2018-06-15T03:23:44.977Z,23.33
2018-06-15T03:26:12.590Z,22.63
2018-06-15T03:28:40.132Z,21.50
2018-06-15T03:31:07.707Z,21.57
2018-06-15T03:33:35.214Z,25.20
2018-06-15T03:36:02.922Z,23.50
2018-06-15T03:38:30.521Z,24.70
2018-06-15T03:40:58.086Z,24.10
2018-06-15T03:43:25.656Z,23.60
2018-06-15T03:45:53.218Z,25.37
2018-06-15T03:48:20.790Z,22.47
2018-06-15T03:50:48.335Z,23.10
2018-06-15T03:53:15.919Z,25.13
2018-06-15T03:55:43.462Z,25.67
2018-06-15T03:58:11.346Z,23.47
2018-06-15T04:00:38.892Z,26.60
2018-06-15T04:03:06.450Z,26.57
2018-06-15T04:05:33.951Z,27.67
2018-06-15T04:08:01.487Z,27.47
2018-06-15T04:10:29.417Z,25.30
2018-06-15T04:12:56.970Z,25.27
2018-06-15T04:15:24.603Z,27.00
2018-06-15T04:17:56.884Z,27.10
2018-06-15T04:20:24.692Z,28.83
2018-06-15T04:22:52.242Z,26.70
2018-06-15T04:25:19.795Z,26.40
2018-06-15T04:27:47.348Z,26.53
2018-06-15T04:30:14.888Z,26.50
2018-06-15T04:32:42.534Z,27.00
2018-06-15T04:35:10.071Z,28.23
2018-06-15T04:37:37.685Z,25.30
2018-06-15T04:40:05.192Z,28.27
2018-06-15T04:42:32.823Z,25.97
2018-06-15T04:45:00.354Z,27.50
2018-06-15T04:47:27.870Z,27.40
2018-06-15T04:49:55.537Z,27.47
2018-06-15T04:52:25.228Z,27.20
2018-06-15T04:54:52.976Z,27.73
2018-06-15T04:57:20.533Z,27.27
2018-06-15T04:59:48.078Z,27.73
2018-06-15T05:02:15.674Z,27.27
2018-06-15T05:04:43.196Z,28.93
2018-06-15T05:07:10.718Z,25.93
2018-06-15T05:09:38.236Z,29.17
2018-06-15T05:12:05.823Z,28.73
2018-06-15T05:14:33.426Z,28.20
2018-06-15T05:17:01.003Z,27.00
2018-06-15T05:19:28.606Z,28.80
2018-06-15T05:21:56.220Z,28.40
2018-06-15T05:24:23.770Z,27.93
2018-06-15T05:26:51.288Z,27.83
2018-06-15T05:29:18.902Z,32.27
2018-06-15T05:31:46.670Z,29.40
2018-06-15T05:34:14.722Z,32.27
2018-06-15T05:36:42.259Z,29.63
2018-06-15T05:39:10.638Z,29.80
2018-06-15T05:41:38.333Z,30.73
2018-06-15T05:44:05.926Z,30.97
2018-06-15T05:46:33.606Z,31.10
2018-06-15T05:49:01.362Z,35.07
2018-06-15T05:51:28.962Z,34.13
2018-06-15T05:53:56.503Z,33.43
2018-06-15T05:56:24.042Z,33.73
2018-06-15T05:58:51.577Z,32.27
2018-06-15T06:01:19.170Z,33.40
2018-06-15T06:03:46.810Z,33.60
2018-06-15T06:06:14.698Z,32.50
2018-06-15T06:08:42.296Z,33.00
2018-06-15T06:11:09.844Z,33.27
2018-06-15T06:13:37.383Z,32.40
2018-06-15T06:16:05.011Z,34.03
2018-06-15T06:18:32.627Z,32.37
2018-06-15T06:21:00.300Z,30.53
2018-06-15T06:23:27.948Z,30.90
2018-06-15T06:26:01.304Z,30.67
2018-06-15T06:28:28.823Z,30.73
2018-06-15T06:30:56.480Z,32.20
2018-06-15T06:33:24.063Z,31.17
2018-06-15T06:35:51.592Z,32.03
2018-06-15T06:38:31.494Z,29.97
2018-06-15T06:41:00.592Z,32.10
2018-06-15T06:43:31.975Z,33.00
2018-06-15T06:46:10.369Z,34.23
2018-06-15T06:48:37.689Z,32.90
2018-06-15T06:51:05.170Z,30.97
2018-06-15T06:53:33.307Z,33.40
2018-06-15T06:56:00.718Z,32.73
2018-06-15T06:58:28.060Z,33.70
2018-06-15T07:00:55.383Z,33.10
2018-06-15T07:03:30.602Z,34.37
2018-06-15T07:06:05.553Z,33.43
2018-06-15T07:08:32.901Z,31.80
2018-06-15T07:11:00.303Z,32.87
2018-06-15T07:13:27.697Z,34.50
2018-06-15T07:15:55.050Z,34.17
2018-06-15T07:18:22.432Z,32.80
2018-06-15T07:20:49.785Z,32.50
2018-06-15T07:23:17.406Z,32.07
2018-06-15T07:25:44.829Z,29.73
2018-06-15T07:28:12.305Z,30.20
2018-06-15T07:30:39.892Z,30.30
2018-06-15T07:33:25.969Z,29.17
2018-06-15T07:35:53.399Z,29.97
2018-06-15T07:38:21.846Z,28.23
2018-06-15T07:40:49.333Z,28.10
2018-06-15T07:43:17.945Z,27.67
2018-06-15T07:45:45.312Z,26.10
2018-06-15T07:48:12.647Z,25.80
2018-06-15T07:50:40.476Z,25.63
2018-06-15T07:53:07.835Z,24.20
2018-06-15T07:55:38.825Z,26.23
2018-06-15T07:58:06.224Z,24.43
2018-06-15T08:00:33.564Z,23.47
2018-06-15T08:03:01.041Z,22.97
2018-06-15T08:05:28.368Z,20.70
2018-06-15T08:08:02.091Z,23.27
2018-06-15T08:10:35.709Z,19.40
2018-06-15T08:13:03.105Z,20.80
2018-06-15T08:15:30.441Z,22.60
2018-06-15T08:18:06.113Z,20.83
2018-06-15T08:20:33.500Z,22.57
2018-06-15T08:23:01.017Z,22.33
2018-06-15T08:25:28.368Z,23.00
2018-06-15T08:27:55.740Z,21.43
2018-06-15T08:30:23.060Z,21.50
2018-06-15T08:32:52.068Z,18.83
2018-06-15T08:35:19.466Z,18.77
2018-06-15T08:37:46.865Z,16.80
2018-06-15T08:40:14.276Z,14.80
2018-06-15T08:42:42.081Z,15.60
2018-06-15T08:45:14.461Z,17.20
2018-06-15T08:47:41.748Z,20.87
2018-06-15T08:50:09.517Z,20.13
2018-06-15T08:52:36.805Z,19.90
2018-06-15T08:55:04.422Z,18.70
2018-06-15T08:57:31.846Z,19.17
2018-06-15T09:00:03.996Z,18.83
2018-06-15T09:02:31.580Z,18.70
2018-06-15T09:05:06.390Z,18.60
2018-06-15T09:07:33.860Z,16.20
2018-06-15T09:10:01.201Z,16.23
2018-06-15T09:12:30.293Z,16.83
2018-06-15T09:15:00.668Z,16.37
2018-06-15T09:17:28.096Z,17.43
2018-06-15T09:19:56.474Z,18.70
2018-06-15T09:22:23.889Z,19.53
2018-06-15T09:24:54.640Z,19.23
2018-06-15T09:27:29.953Z,18.97
2018-06-15T09:29:57.612Z,17.40
2018-06-15T09:32:36.000Z,15.37
2018-06-15T09:35:03.618Z,13.27
2018-06-15T09:37:31.228Z,12.73
2018-06-15T09:40:04.884Z,13.73
2018-06-15T09:42:32.381Z,13.00
2018-06-15T09:45:03.026Z,10.87
2018-06-15T09:47:30.560Z,11.77
2018-06-15T09:49:58.073Z,10.80
2018-06-15T09:52:25.548Z,12.83
2018-06-15T09:54:53.171Z,13.80
2018-06-15T09:57:25.880Z,12.10
2018-06-15T09:59:53.422Z,12.03
2018-06-15T10:02:21.197Z,8.30
2018-06-15T10:04:48.840Z,8.53
2018-06-15T10:07:16.285Z,8.57
2018-06-15T10:09:43.865Z,7.80
2018-06-15T10:12:15.028Z,8.60
2018-06-15T10:14:42.856Z,8.90
2018-06-15T10:17:10.610Z,9.83
2018-06-15T10:19:38.397Z,8.97
2018-06-15T10:22:06.052Z,7.60
2018-06-15T10:24:39.581Z,8.37
2018-06-15T10:27:07.204Z,7.40
2018-06-15T10:29:34.804Z,6.80
2018-06-15T10:32:02.464Z,7.50
2018-06-15T10:34:30.108Z,7.00
2018-06-15T10:36:57.606Z,6.70
2018-06-15T10:39:25.123Z,6.20
2018-06-15T10:41:53.957Z,5.73
2018-06-15T10:44:21.562Z,6.40
2018-06-15T10:46:49.216Z,5.80
2018-06-15T10:49:16.696Z,6.20
2018-06-15T10:51:44.210Z,5.50
2018-06-15T10:54:17.023Z,6.07
2018-06-15T10:56:44.485Z,5.40
2018-06-15T10:59:12.212Z,5.80
2018-06-15T11:01:39.888Z,6.17
2018-06-15T11:04:07.401Z,6.03
2018-06-15T11:06:34.945Z,5.80
2018-06-15T11:09:05.801Z,5.87
2018-06-15T11:11:33.338Z,5.97
2018-06-15T11:14:00.896Z,6.23
2018-06-15T11:16:28.433Z,6.10
2018-06-15T11:18:55.945Z,5.30
2018-06-15T11:21:27.881Z,6.40
2018-06-15T11:23:55.365Z,5.90
2018-06-15T11:26:23.021Z,6.60
2018-06-15T11:28:50.697Z,5.67
2018-06-15T11:31:18.270Z,5.43
2018-06-15T11:34:02.333Z,5.80
2018-06-15T11:36:29.864Z,5.40
2018-06-15T11:38:57.455Z,6.53
2018-06-15T11:41:29.868Z,6.60
2018-06-15T11:43:57.421Z,6.47
2018-06-15T11:46:26.088Z,6.30
2018-06-15T11:48:53.664Z,6.37
2018-06-15T11:51:21.229Z,6.97
2018-06-15T11:53:53.561Z,6.77
2018-06-15T11:56:21.136Z,6.87
2018-06-15T11:58:48.730Z,7.00
2018-06-15T12:01:16.265Z,7.40
2018-06-15T12:03:43.971Z,7.23
2018-06-15T12:06:14.359Z,7.20
2018-06-15T12:08:46.834Z,8.53
2018-06-15T12:11:14.471Z,7.40
2018-06-15T12:13:42.011Z,7.73
2018-06-15T12:16:09.860Z,7.00
2018-06-15T12:18:41.482Z,7.77
2018-06-15T12:21:09.046Z,8.37
2018-06-15T12:23:36.620Z,7.73
2018-06-15T12:26:04.686Z,9.23
2018-06-15T12:28:32.346Z,8.33
2018-06-15T12:31:02.879Z,8.13
2018-06-15T12:33:30.717Z,7.50
2018-06-15T12:35:58.276Z,8.00
2018-06-15T12:38:25.806Z,7.80
2018-06-15T12:40:53.378Z,8.00
2018-06-15T12:43:21.035Z,6.63
2018-06-15T12:45:50.366Z,7.70
2018-06-15T12:48:18.007Z,8.70
2018-06-15T12:50:45.563Z,8.40
2018-06-15T12:53:13.180Z,8.50
2018-06-15T12:55:40.737Z,8.30
2018-06-15T12:58:08.326Z,7.77
2018-06-15T13:00:35.865Z,9.13
2018-06-15T13:03:03.682Z,8.37
2018-06-15T13:05:31.384Z,8.67
2018-06-15T13:07:59.032Z,8.17
2018-06-15T13:10:26.549Z,8.63
2018-06-15T13:12:54.199Z,8.20
2018-06-15T13:15:22.019Z,8.03
2018-06-15T13:17:49.646Z,8.10
2018-06-15T13:20:17.391Z,8.53
2018-06-15T13:22:45.020Z,8.10
2018-06-15T13:25:12.725Z,8.13
2018-06-15T13:27:40.373Z,7.73
2018-06-15T13:30:07.951Z,7.70
2018-06-15T13:32:35.737Z,7.30
2018-06-15T13:35:03.419Z,7.67
2018-06-15T13:37:31.060Z,7.80
2018-06-15T13:39:58.629Z,7.27
2018-06-15T13:42:31.191Z,7.00
2018-06-15T13:44:58.746Z,7.33
2018-06-15T13:47:26.355Z,7.03
2018-06-15T13:49:53.930Z,7.50
2018-06-15T13:52:21.605Z,7.10
2018-06-15T13:54:49.933Z,6.80
2018-06-15T13:57:21.178Z,7.00
2018-06-15T13:59:48.743Z,6.97
2018-06-15T14:02:16.335Z,7.60
2018-06-15T14:04:43.966Z,7.40
2018-06-15T14:07:11.542Z,7.50
2018-06-15T14:09:40.898Z,6.80
2018-06-15T14:12:08.454Z,7.13
2018-06-15T14:14:35.999Z,7.43
2018-06-15T14:17:03.785Z,7.03
2018-06-15T14:19:31.358Z,7.07
2018-06-15T14:22:02.790Z,7.90
2018-06-15T14:24:30.627Z,6.90
2018-06-15T14:26:58.222Z,7.23
2018-06-15T14:29:25.891Z,7.67
2018-06-15T14:31:53.436Z,7.33
2018-06-15T14:34:26.406Z,6.57
2018-06-15T14:36:53.927Z,7.03
2018-06-15T14:39:21.597Z,6.87
2018-06-15T14:41:49.234Z,7.17
2018-06-15T14:44:16.952Z,7.80
2018-06-15T14:46:44.584Z,7.70
2018-06-15T14:49:16.838Z,7.43
2018-06-15T14:51:44.635Z,6.93
2018-06-15T14:54:12.339Z,6.37
2018-06-15T14:56:57.132Z,6.43
2018-06-15T14:59:24.867Z,7.83
2018-06-15T15:01:52.527Z,7.00
2018-06-15T15:04:20.255Z,7.03
2018-06-15T15:06:48.014Z,7.10
2018-06-15T15:09:16.400Z,6.23
2018-06-15T15:11:46.139Z,6.50
2018-06-15T15:14:13.807Z,6.87
2018-06-15T15:16:41.599Z,6.13
2018-06-15T15:19:09.242Z,6.07
2018-06-15T15:21:36.806Z,5.80
2018-06-15T15:24:08.608Z,6.13
2018-06-15T15:26:36.178Z,6.30
2018-06-15T15:29:03.943Z,6.03
2018-06-15T15:31:31.485Z,5.73
2018-06-15T15:33:59.157Z,6.00
2018-06-15T15:36:26.821Z,6.27
2018-06-15T15:38:57.480Z,6.10
2018-06-15T15:41:25.120Z,6.20
2018-06-15T15:43:52.804Z,6.30
2018-06-15T15:46:20.390Z,6.40
2018-06-15T15:48:48.042Z,5.63
2018-06-15T15:51:15.730Z,6.80
2018-06-15T15:53:45.334Z,5.97
2018-06-15T15:56:12.924Z,5.80
2018-06-15T15:58:40.479Z,5.83
2018-06-15T16:01:08.129Z,5.63
2018-06-15T16:03:35.772Z,7.03
2018-06-15T16:06:03.396Z,6.30
2018-06-15T16:08:33.537Z,6.67
2018-06-15T16:11:01.222Z,7.00
2018-06-15T16:13:28.850Z,6.20
2018-06-15T16:15:56.474Z,6.03
2018-06-15T16:18:24.196Z,7.33
2018-06-15T16:20:56.646Z,7.47
2018-06-15T16:23:24.396Z,7.30
2018-06-15T16:25:52.039Z,7.07
2018-06-15T16:28:19.618Z,6.63
2018-06-15T16:30:47.146Z,7.27
2018-06-15T16:33:19.359Z,6.10
2018-06-15T16:35:46.945Z,5.90
2018-06-15T16:38:14.541Z,6.93
2018-06-15T16:40:42.123Z,6.60
2018-06-15T16:43:09.762Z,6.60
2018-06-15T16:45:37.326Z,6.50
2018-06-15T16:48:04.919Z,6.20
2018-06-15T16:50:32.468Z,7.03
2018-06-15T16:53:00.066Z,6.37
2018-06-15T16:55:27.686Z,6.60
2018-06-15T16:57:55.206Z,6.90
2018-06-15T17:00:22.798Z,6.00
2018-06-15T17:02:50.460Z,6.50
2018-06-15T17:05:17.909Z,5.40
2018-06-15T17:07:45.547Z,5.10
2018-06-15T17:10:12.902Z,5.37
2018-06-15T17:12:40.261Z,5.60
2018-06-15T17:15:13.027Z,5.23
2018-06-15T17:17:40.443Z,5.50
2018-06-15T17:20:07.791Z,5.40
2018-06-15T17:22:35.269Z,5.67
2018-06-15T17:25:02.663Z,5.77
2018-06-15T17:27:30.226Z,5.80
2018-06-15T17:30:03.756Z,6.23
2018-06-15T17:32:31.122Z,5.50
2018-06-15T17:34:58.670Z,5.50
2018-06-15T17:37:26.168Z,5.73
2018-06-15T17:39:53.830Z,5.53
2018-06-15T17:42:24.982Z,5.23
2018-06-15T17:44:52.430Z,4.13
2018-06-15T17:47:19.917Z,4.70
2018-06-15T17:49:47.389Z,5.43
2018-06-15T17:52:14.770Z,4.43
2018-06-15T17:54:42.185Z,4.70
2018-06-15T17:57:09.635Z,5.10
2018-06-15T17:59:40.780Z,4.97
2018-06-15T18:02:08.116Z,5.87
2018-06-15T18:04:35.497Z,5.83
2018-06-15T18:07:02.930Z,5.03
2018-06-15T18:09:30.298Z,5.20
2018-06-15T18:12:00.232Z,5.30
2018-06-15T18:14:29.731Z,4.80
2018-06-15T18:16:57.185Z,5.37
2018-06-15T18:19:24.582Z,5.20
2018-06-15T18:21:52.343Z,5.40
2018-06-15T18:24:19.716Z,4.63
2018-06-15T18:26:51.454Z,5.23
2018-06-15T18:29:18.965Z,5.10
2018-06-15T18:31:46.308Z,4.90
2018-06-15T18:34:13.662Z,4.70
2018-06-15T18:36:41.327Z,4.50
2018-06-15T18:39:11.487Z,4.63
2018-06-15T18:41:39.003Z,4.50
2018-06-15T18:44:06.794Z,4.40
2018-06-15T18:46:34.661Z,4.90
2018-06-15T18:49:06.151Z,4.30
2018-06-15T18:51:33.809Z,4.13
2018-06-15T18:54:01.317Z,4.43
2018-06-15T18:56:28.693Z,4.80
2018-06-15T18:58:56.093Z,4.27
2018-06-15T19:01:23.461Z,4.60
2018-06-15T19:03:53.357Z,5.00
2018-06-15T19:06:21.027Z,5.40
2018-06-15T19:08:48.931Z,4.27
2018-06-15T19:11:16.503Z,4.70
2018-06-15T19:13:44.408Z,5.23
2018-06-15T19:16:11.860Z,4.73
2018-06-15T19:18:39.243Z,4.53
2018-06-15T19:21:06.618Z,4.90
2018-06-15T19:23:34.392Z,5.40
2018-06-15T19:26:03.698Z,4.30
2018-06-15T19:28:31.017Z,4.83
2018-06-15T19:30:58.326Z,5.00
2018-06-15T19:33:25.744Z,4.90
2018-06-15T19:35:53.435Z,5.40
2018-06-15T19:38:20.846Z,5.40
2018-06-15T19:40:48.248Z,4.07
2018-06-15T19:43:15.809Z,5.40
2018-06-15T19:45:44.909Z,5.17
2018-06-15T19:48:13.002Z,4.80
2018-06-15T19:50:40.417Z,5.07
2018-06-15T19:53:07.850Z,5.10
2018-06-15T19:55:35.485Z,4.40
2018-06-15T19:58:03.227Z,5.60
2018-06-15T20:00:30.929Z,5.23
2018-06-15T20:02:58.510Z,5.23
2018-06-15T20:05:25.910Z,5.80
2018-06-15T20:07:53.483Z,5.70
2018-06-15T20:12:55.396Z,4.90
2018-06-15T20:15:22.743Z,5.83
2018-06-15T20:17:50.196Z,5.47
2018-06-15T20:20:17.700Z,5.63
2018-06-15T20:22:45.187Z,5.70
2018-06-15T20:25:14.388Z,6.20
2018-06-15T20:27:41.717Z,6.60
2018-06-15T20:30:09.256Z,6.40
2018-06-15T20:32:36.707Z,6.23
2018-06-15T20:35:04.601Z,6.37
2018-06-15T20:37:32.110Z,6.47
2018-06-15T20:39:59.481Z,6.77
2018-06-15T20:42:26.784Z,6.80
2018-06-15T20:44:55.203Z,6.67
2018-06-15T20:47:23.036Z,5.80
2018-06-15T20:49:50.365Z,6.60
2018-06-15T20:52:17.781Z,6.03
2018-06-15T20:54:45.197Z,6.40
2018-06-15T20:57:14.901Z,6.70
2018-06-15T20:59:42.350Z,7.80
2018-06-15T21:02:09.817Z,7.33
2018-06-15T21:04:38.288Z,5.60
2018-06-15T21:07:07.216Z,7.10
2018-06-15T21:09:35.739Z,6.10
2018-06-15T21:12:04.226Z,5.70
2018-06-15T21:14:31.735Z,5.90
2018-06-15T21:16:59.145Z,6.20
2018-06-15T21:19:26.636Z,6.53
2018-06-15T21:21:53.975Z,7.07
2018-06-15T21:24:21.344Z,6.20
2018-06-15T21:26:48.804Z,6.40
2018-06-15T21:29:16.249Z,6.10
2018-06-15T21:31:43.589Z,6.43
2018-06-15T21:34:11.444Z,6.80
2018-06-15T21:36:38.743Z,6.30
2018-06-15T21:39:06.997Z,6.33
2018-06-15T21:41:34.312Z,6.37
2018-06-15T21:44:01.762Z,7.00
2018-06-15T21:46:29.270Z,6.67
2018-06-15T21:48:56.729Z,7.20
2018-06-15T21:51:24.092Z,6.67
2018-06-15T21:53:52.540Z,7.20
2018-06-15T21:56:19.846Z,6.90
2018-06-15T21:58:47.211Z,7.47
2018-06-15T22:01:14.832Z,6.23
2018-06-15T22:03:42.708Z,6.83
2018-06-15T22:06:10.107Z,6.50
2018-06-15T22:08:37.617Z,6.97
2018-06-15T22:11:05.020Z,6.53
2018-06-15T22:13:32.328Z,6.00
2018-06-15T22:15:59.692Z,6.60
2018-06-15T22:18:27.043Z,6.20
2018-06-15T22:20:54.380Z,6.80
2018-06-15T22:23:22.010Z,6.60
2018-06-15T22:25:49.291Z,5.90
2018-06-15T22:28:16.875Z,5.80
2018-06-15T22:30:44.452Z,6.70
2018-06-15T22:33:11.909Z,6.13
2018-06-15T22:35:39.244Z,6.40
2018-06-15T22:38:06.520Z,6.77
2018-06-15T22:40:33.869Z,6.77
2018-06-15T22:43:01.345Z,6.30
2018-06-15T22:45:28.793Z,7.07
2018-06-15T22:47:56.116Z,6.83
2018-06-15T22:50:23.489Z,6.00
2018-06-15T22:52:50.990Z,6.30
2018-06-15T22:55:18.451Z,6.63
2018-06-15T22:57:45.836Z,7.20
2018-06-15T23:00:15.933Z,6.07
2018-06-15T23:02:43.468Z,5.90
2018-06-15T23:05:14.892Z,5.77
2018-06-15T23:07:42.293Z,5.70
2018-06-15T23:10:10.739Z,5.77
2018-06-15T23:12:38.213Z,5.70
2018-06-15T23:15:06.734Z,6.30
2018-06-15T23:17:34.180Z,5.67
2018-06-15T23:20:03.963Z,5.80
2018-06-15T23:22:31.452Z,5.50
2018-06-15T23:25:03.225Z,6.00
2018-06-15T23:27:30.649Z,5.70
2018-06-15T23:29:59.516Z,5.40
2018-06-15T23:32:26.824Z,5.20
2018-06-15T23:34:54.221Z,5.73
2018-06-15T23:37:21.596Z,5.50
2018-06-15T23:39:48.913Z,5.27
2018-06-15T23:42:16.478Z,5.70
2018-06-15T23:44:45.207Z,5.73
2018-06-15T23:47:12.563Z,5.03
2018-06-15T23:49:41.239Z,5.93
2018-06-15T23:52:08.558Z,4.97
2018-06-15T23:54:35.836Z,5.90
2018-06-15T23:57:03.414Z,5.13
2018-06-15T23:59:30.700Z,5.27
